createdAt,value
2018-04-24T00:00:08.812Z,82.21
2018-04-24T00:01:08.826Z,82.21
2018-04-24T00:02:08.858Z,81.74
2018-04-24T00:03:08.872Z,81.74
2018-04-24T00:04:08.892Z,81.74
2018-04-24T00:05:08.922Z,81.54
2018-04-24T00:06:08.958Z,81.74
2018-04-24T00:07:08.970Z,81.26
2018-04-24T00:08:08.991Z,81.54
2018-04-24T00:09:09.022Z,82.51
2018-04-24T00:10:09.036Z,82.70
2018-04-24T00:11:09.064Z,82.51
2018-04-24T00:12:09.091Z,83.42
2018-04-24T00:13:09.110Z,82.51
2018-04-24T00:14:09.138Z,81.93
2018-04-24T00:15:09.156Z,81.64
2018-04-24T00:16:09.174Z,81.54
2018-04-24T00:17:09.204Z,82.12
2018-04-24T00:18:09.231Z,82.12
2018-04-24T00:19:09.249Z,81.74
2018-04-24T00:20:09.277Z,81.54
2018-04-24T00:21:09.314Z,81.74
2018-04-24T00:22:09.327Z,81.84
2018-04-24T00:23:09.343Z,81.64
2018-04-24T00:24:09.376Z,82.12
2018-04-24T00:25:09.398Z,82.75
2018-04-24T00:26:09.417Z,82.85
2018-04-24T00:27:09.441Z,83.14
2018-04-24T00:28:09.468Z,83.52
2018-04-24T00:29:09.483Z,84.19
2018-04-24T00:30:09.517Z,84.00
2018-04-24T00:31:09.540Z,82.89
2018-04-24T00:32:09.555Z,82.70
2018-04-24T00:33:09.581Z,82.41
2018-04-24T00:34:09.610Z,82.60
2018-04-24T00:35:09.634Z,83.81
2018-04-24T00:36:09.652Z,84.67
2018-04-24T00:37:09.688Z,84.19
2018-04-24T00:38:09.700Z,84.28
2018-04-24T00:39:09.726Z,84.86
2018-04-24T00:40:09.755Z,84.48
2018-04-24T00:41:09.771Z,84.86
2018-04-24T00:42:09.792Z,84.28
2018-04-24T00:43:09.844Z,83.71
2018-04-24T00:44:09.843Z,83.37
2018-04-24T00:45:09.867Z,83.71
2018-04-24T00:46:09.910Z,83.71
2018-04-24T00:47:09.918Z,84.28
2018-04-24T00:48:09.943Z,84.67
2018-04-24T00:49:09.965Z,85.39
2018-04-24T00:50:09.987Z,85.68
2018-04-24T00:51:10.012Z,85.68
2018-04-24T00:52:10.035Z,85.30
2018-04-24T00:53:10.056Z,85.01
2018-04-24T00:54:10.096Z,85.21
2018-04-24T00:55:10.113Z,85.39
2018-04-24T00:56:10.132Z,85.11
2018-04-24T00:57:10.156Z,85.49
2018-04-24T00:58:10.174Z,85.78
2018-04-24T00:59:10.200Z,85.88
2018-04-24T01:00:10.219Z,86.35
2018-04-24T01:01:10.252Z,86.16
2018-04-24T01:02:10.275Z,85.68
2018-04-24T01:03:10.294Z,86.74
2018-04-24T01:04:10.315Z,87.12
2018-04-24T01:05:10.344Z,86.25
2018-04-24T01:06:10.363Z,86.54
2018-04-24T01:07:10.392Z,86.50
2018-04-24T01:08:10.430Z,87.27
2018-04-24T01:09:10.433Z,87.08
2018-04-24T01:10:10.458Z,86.88
2018-04-24T01:11:10.482Z,86.74
2018-04-24T01:12:10.504Z,86.35
2018-04-24T01:13:10.533Z,85.68
2018-04-24T01:14:10.556Z,86.25
2018-04-24T01:15:10.585Z,86.60
2018-04-24T01:16:10.598Z,86.74
2018-04-24T01:17:10.624Z,86.50
2018-04-24T01:18:10.650Z,87.27
2018-04-24T01:19:10.667Z,86.88
2018-04-24T01:20:10.700Z,86.83
2018-04-24T01:21:10.729Z,86.69
2018-04-24T01:22:10.739Z,86.64
2018-04-24T01:23:10.768Z,87.08
2018-04-24T01:24:10.790Z,86.88
2018-04-24T01:25:10.810Z,86.74
2018-04-24T01:26:10.845Z,86.74
2018-04-24T01:27:10.858Z,86.41
2018-04-24T01:28:10.882Z,87.37
2018-04-24T01:29:10.935Z,86.83
2018-04-24T01:30:10.932Z,86.60
2018-04-24T01:31:10.956Z,88.13
2018-04-24T01:32:10.977Z,88.13
2018-04-24T01:33:11.004Z,87.84
2018-04-24T01:34:11.023Z,88.23
2018-04-24T01:35:11.059Z,87.08
2018-04-24T01:36:11.072Z,86.50
2018-04-24T01:37:11.093Z,86.50
2018-04-24T01:38:11.114Z,87.46
2018-04-24T01:39:11.138Z,88.23
2018-04-24T01:40:11.166Z,87.17
2018-04-24T01:41:11.186Z,86.69
2018-04-24T01:42:11.207Z,87.37
2018-04-24T01:43:11.237Z,87.27
2018-04-24T01:44:11.258Z,87.27
2018-04-24T01:45:11.295Z,87.84
2018-04-24T01:46:11.302Z,87.08
2018-04-24T01:47:11.328Z,86.41
2018-04-24T01:48:11.349Z,86.88
2018-04-24T01:49:11.375Z,87.37
2018-04-24T01:50:11.400Z,87.74
2018-04-24T01:51:11.428Z,87.84
2018-04-24T01:52:11.449Z,87.27
2018-04-24T01:53:11.472Z,87.80
2018-04-24T01:54:11.487Z,87.99
2018-04-24T01:55:11.506Z,87.17
2018-04-24T01:56:11.537Z,86.79
2018-04-24T01:57:11.558Z,86.50
2018-04-24T01:58:11.581Z,86.60
2018-04-24T01:59:11.606Z,86.79
2018-04-24T02:00:11.626Z,87.17
2018-04-24T02:01:11.644Z,87.94
2018-04-24T02:02:11.676Z,87.08
2018-04-24T02:03:11.700Z,87.27
2018-04-24T02:04:11.717Z,86.88
2018-04-24T02:05:11.753Z,86.12
2018-04-24T02:06:11.773Z,86.79
2018-04-24T02:07:11.785Z,88.28
2018-04-24T02:08:11.813Z,88.32
2018-04-24T02:09:11.850Z,86.98
2018-04-24T02:10:11.857Z,87.17
2018-04-24T02:11:11.883Z,88.18
2018-04-24T02:12:11.906Z,87.80
2018-04-24T02:13:11.938Z,89.04
2018-04-24T02:14:11.951Z,89.04
2018-04-24T02:15:11.974Z,89.33
2018-04-24T02:16:12.000Z,89.33
2018-04-24T02:17:12.022Z,89.62
2018-04-24T02:18:12.046Z,89.43
2018-04-24T02:19:12.077Z,89.67
2018-04-24T02:20:12.085Z,89.23
2018-04-24T02:21:12.134Z,89.04
2018-04-24T02:22:12.142Z,89.14
2018-04-24T02:23:12.159Z,88.66
2018-04-24T02:24:12.185Z,88.56
2018-04-24T02:25:12.199Z,88.18
2018-04-24T02:26:12.227Z,87.84
2018-04-24T02:27:12.251Z,86.98
2018-04-24T02:28:12.275Z,86.41
2018-04-24T02:29:12.299Z,86.50
2018-04-24T02:30:12.317Z,86.50
2018-04-24T02:31:12.343Z,87.17
2018-04-24T02:32:12.370Z,87.46
2018-04-24T02:33:12.391Z,88.56
2018-04-24T02:34:12.417Z,89.14
2018-04-24T02:35:12.442Z,87.84
2018-04-24T02:36:12.459Z,87.70
2018-04-24T02:37:12.477Z,88.56
2018-04-24T02:38:12.503Z,88.47
2018-04-24T02:39:12.528Z,87.41
2018-04-24T02:40:12.556Z,86.98
2018-04-24T02:41:12.574Z,86.79
2018-04-24T02:42:12.594Z,87.55
2018-04-24T02:43:12.619Z,87.80
2018-04-24T02:44:12.654Z,87.90
2018-04-24T02:45:12.671Z,88.18
2018-04-24T02:46:12.687Z,88.66
2018-04-24T02:47:12.740Z,89.04
2018-04-24T02:48:12.741Z,88.76
2018-04-24T02:49:12.754Z,88.18
2018-04-24T02:50:12.776Z,87.74
2018-04-24T02:51:12.800Z,87.61
2018-04-24T02:52:12.829Z,87.61
2018-04-24T02:53:12.849Z,88.95
2018-04-24T02:54:12.874Z,88.09
2018-04-24T02:55:12.912Z,88.95
2018-04-24T02:56:12.914Z,89.14
2018-04-24T02:57:12.942Z,88.66
2018-04-24T02:58:12.962Z,89.14
2018-04-24T02:59:12.986Z,89.23
2018-04-24T03:00:13.009Z,88.56
2018-04-24T03:01:13.040Z,88.47
2018-04-24T03:02:13.066Z,88.76
2018-04-24T03:03:13.077Z,88.37
2018-04-24T03:04:13.098Z,88.56
2018-04-24T03:05:13.125Z,89.14
2018-04-24T03:06:13.150Z,89.52
2018-04-24T03:07:13.171Z,88.76
2018-04-24T03:08:13.191Z,88.37
2018-04-24T03:09:13.210Z,89.23
2018-04-24T03:10:13.237Z,88.56
2018-04-24T03:11:13.259Z,87.80
2018-04-24T03:12:13.283Z,87.90
2018-04-24T03:13:13.305Z,88.85
2018-04-24T03:14:13.328Z,88.56
2018-04-24T03:15:13.352Z,88.76
2018-04-24T03:16:13.374Z,89.86
2018-04-24T03:17:13.405Z,89.58
2018-04-24T03:18:13.423Z,90.15
2018-04-24T03:19:13.441Z,91.20
2018-04-24T03:20:13.465Z,90.48
2018-04-24T03:21:13.500Z,88.66
2018-04-24T03:22:13.511Z,87.90
2018-04-24T03:23:13.533Z,86.69
2018-04-24T03:24:13.590Z,85.35
2018-04-24T03:25:13.591Z,85.25
2018-04-24T03:26:13.601Z,84.88
2018-04-24T03:27:13.625Z,85.06
2018-04-24T03:28:13.650Z,85.45
2018-04-24T03:29:13.672Z,85.16
2018-04-24T03:30:13.692Z,85.06
2018-04-24T03:31:13.718Z,85.88
2018-04-24T03:32:13.737Z,86.27
2018-04-24T03:33:13.764Z,87.23
2018-04-24T03:34:13.783Z,87.47
2018-04-24T03:35:13.805Z,87.95
2018-04-24T03:36:13.827Z,89.19
2018-04-24T03:37:13.854Z,88.76
2018-04-24T03:38:13.883Z,88.62
2018-04-24T03:39:13.900Z,89.00
2018-04-24T03:40:13.921Z,88.04
2018-04-24T03:41:13.940Z,88.90
2018-04-24T03:42:13.965Z,89.09
2018-04-24T03:43:13.993Z,88.62
2018-04-24T03:44:14.013Z,88.04
2018-04-24T03:45:14.037Z,88.52
2018-04-24T03:46:14.057Z,88.43
2018-04-24T03:47:14.080Z,88.13
2018-04-24T03:48:14.101Z,88.33
2018-04-24T03:49:14.140Z,89.72
2018-04-24T03:50:14.156Z,90.15
2018-04-24T03:51:14.171Z,88.90
2018-04-24T03:52:14.198Z,88.66
2018-04-24T03:53:14.219Z,87.90
2018-04-24T03:54:14.233Z,87.32
2018-04-24T03:55:14.266Z,86.65
2018-04-24T03:56:14.291Z,88.52
2018-04-24T03:57:14.346Z,89.38
2018-04-24T03:58:14.328Z,89.58
2018-04-24T03:59:14.351Z,90.53
2018-04-24T04:00:14.377Z,89.86
2018-04-24T04:01:14.450Z,89.95
2018-04-24T04:02:14.422Z,89.86
2018-04-24T04:03:14.445Z,89.09
2018-04-24T04:04:14.469Z,88.09
2018-04-24T04:05:14.488Z,87.80
2018-04-24T04:06:14.513Z,88.09
2018-04-24T04:07:14.528Z,88.09
2018-04-24T04:08:14.560Z,89.14
2018-04-24T04:09:14.577Z,89.48
2018-04-24T04:10:14.607Z,90.44
2018-04-24T04:11:14.625Z,89.86
2018-04-24T04:12:14.654Z,89.86
2018-04-24T04:13:14.665Z,88.37
2018-04-24T04:14:14.689Z,86.31
2018-04-24T04:15:14.711Z,86.12
2018-04-24T04:16:14.734Z,86.31
2018-04-24T04:17:14.763Z,86.94
2018-04-24T04:18:14.788Z,87.90
2018-04-24T04:19:14.802Z,87.08
2018-04-24T04:20:14.822Z,86.55
2018-04-24T04:21:14.865Z,87.32
2018-04-24T04:22:14.878Z,87.85
2018-04-24T04:23:14.900Z,88.81
2018-04-24T04:24:14.923Z,88.56
2018-04-24T04:25:14.953Z,87.70
2018-04-24T04:26:14.961Z,89.38
2018-04-24T04:27:14.984Z,89.04
2018-04-24T04:28:15.009Z,87.99
2018-04-24T04:29:15.034Z,87.61
2018-04-24T04:30:15.055Z,87.61
2018-04-24T04:31:15.077Z,87.41
2018-04-24T04:32:15.097Z,88.18
2018-04-24T04:33:15.116Z,88.81
2018-04-24T04:34:15.142Z,88.81
2018-04-24T04:35:15.166Z,89.19
2018-04-24T04:36:15.194Z,89.58
2018-04-24T04:37:15.216Z,89.95
2018-04-24T04:38:15.230Z,89.67
2018-04-24T04:39:15.259Z,89.00
2018-04-24T04:40:15.282Z,88.90
2018-04-24T04:41:15.309Z,89.19
2018-04-24T04:42:15.327Z,89.00
2018-04-24T04:43:15.354Z,88.81
2018-04-24T04:44:15.382Z,89.09
2018-04-24T04:45:15.396Z,88.56
2018-04-24T04:46:15.417Z,89.23
2018-04-24T04:47:15.439Z,88.76
2018-04-24T04:48:15.464Z,89.09
2018-04-24T04:49:15.523Z,89.09
2018-04-24T04:50:15.555Z,89.29
2018-04-24T04:51:15.531Z,90.44
2018-04-24T04:52:15.557Z,88.85
2018-04-24T04:53:15.588Z,87.70
2018-04-24T04:54:15.593Z,87.13
2018-04-24T04:55:15.619Z,87.23
2018-04-24T04:56:15.640Z,86.31
2018-04-24T04:57:15.660Z,85.93
2018-04-24T04:58:15.696Z,86.02
2018-04-24T04:59:15.715Z,85.54
2018-04-24T05:00:15.730Z,85.25
2018-04-24T05:01:15.766Z,84.44
2018-04-24T05:02:15.789Z,84.58
2018-04-24T05:03:15.805Z,84.49
2018-04-24T05:04:15.829Z,84.39
2018-04-24T05:05:15.918Z,84.58
2018-04-24T05:06:15.867Z,84.58
2018-04-24T05:07:15.890Z,84.39
2018-04-24T05:08:15.916Z,84.11
2018-04-24T05:09:15.938Z,84.20
2018-04-24T05:10:15.960Z,85.50
2018-04-24T05:11:15.984Z,86.12
2018-04-24T05:12:16.077Z,86.08
2018-04-24T05:13:16.037Z,86.55
2018-04-24T05:14:16.063Z,86.46
2018-04-24T05:15:16.080Z,86.46
2018-04-24T05:16:16.097Z,87.85
2018-04-24T05:17:16.123Z,89.29
2018-04-24T05:18:16.137Z,89.00
2018-04-24T05:19:16.159Z,88.56
2018-04-24T05:20:16.218Z,87.99
2018-04-24T05:21:16.218Z,87.90
2018-04-24T05:22:16.230Z,88.56
2018-04-24T05:23:16.261Z,88.85
2018-04-24T05:24:16.277Z,87.99
2018-04-24T05:25:16.316Z,87.41
2018-04-24T05:26:16.324Z,87.27
2018-04-24T05:27:16.344Z,87.23
2018-04-24T05:28:16.375Z,87.99
2018-04-24T05:29:16.390Z,87.37
2018-04-24T05:30:16.409Z,87.17
2018-04-24T05:31:16.439Z,87.46
2018-04-24T05:32:16.506Z,86.31
2018-04-24T05:33:16.499Z,86.31
2018-04-24T05:34:16.502Z,86.31
2018-04-24T05:35:16.532Z,87.27
2018-04-24T05:36:16.554Z,87.94
2018-04-24T05:37:16.579Z,87.27
2018-04-24T05:38:16.598Z,87.74
2018-04-24T05:39:16.616Z,86.88
2018-04-24T05:40:16.646Z,86.88
2018-04-24T05:41:16.670Z,87.17
2018-04-24T05:42:16.692Z,87.37
2018-04-24T05:43:16.715Z,87.65
2018-04-24T05:44:16.738Z,87.84
2018-04-24T05:45:16.770Z,87.94
2018-04-24T05:46:16.772Z,87.46
2018-04-24T05:47:16.802Z,87.27
2018-04-24T05:48:16.827Z,87.65
2018-04-24T05:49:16.844Z,87.84
2018-04-24T05:50:16.875Z,87.74
2018-04-24T05:51:16.896Z,88.61
2018-04-24T05:52:16.972Z,88.23
2018-04-24T05:53:16.939Z,88.70
2018-04-24T05:54:16.962Z,88.80
2018-04-24T05:55:16.986Z,88.80
2018-04-24T05:56:17.007Z,88.99
2018-04-24T05:57:17.037Z,88.61
2018-04-24T05:58:17.061Z,88.32
2018-04-24T05:59:17.080Z,87.94
2018-04-24T06:00:17.095Z,88.61
2018-04-24T06:01:17.128Z,88.99
2018-04-24T06:02:17.143Z,90.39
2018-04-24T06:03:17.168Z,90.86
2018-04-24T06:04:17.204Z,89.76
2018-04-24T06:05:17.210Z,90.72
2018-04-24T06:06:17.234Z,90.05
2018-04-24T06:07:17.260Z,89.09
2018-04-24T06:08:17.378Z,88.42
2018-04-24T06:09:17.302Z,87.74
2018-04-24T06:10:17.335Z,88.13
2018-04-24T06:11:17.366Z,88.42
2018-04-24T06:12:17.371Z,88.51
2018-04-24T06:13:17.393Z,88.13
2018-04-24T06:14:17.424Z,88.08
2018-04-24T06:15:17.443Z,87.12
2018-04-24T06:16:17.466Z,86.74
2018-04-24T06:17:17.485Z,87.21
2018-04-24T06:18:17.511Z,87.31
2018-04-24T06:19:17.536Z,88.03
2018-04-24T06:20:17.561Z,89.09
2018-04-24T06:21:17.579Z,88.70
2018-04-24T06:22:17.607Z,90.29
2018-04-24T06:23:17.629Z,90.77
2018-04-24T06:24:17.652Z,90.33
2018-04-24T06:25:17.669Z,89.86
2018-04-24T06:26:17.697Z,89.28
2018-04-24T06:27:17.724Z,89.66
2018-04-24T06:28:17.754Z,89.76
2018-04-24T06:29:17.807Z,89.76
2018-04-24T06:30:17.798Z,88.84
2018-04-24T06:31:17.816Z,88.08
2018-04-24T06:32:17.900Z,88.84
2018-04-24T06:33:17.851Z,89.13
2018-04-24T06:34:17.890Z,88.27
2018-04-24T06:35:17.902Z,87.98
2018-04-24T06:36:17.929Z,88.94
2018-04-24T06:37:17.946Z,89.90
2018-04-24T06:38:17.972Z,88.84
2018-04-24T06:39:17.999Z,90.62
2018-04-24T06:40:18.029Z,91.67
2018-04-24T06:41:18.042Z,91.58
2018-04-24T06:42:18.086Z,92.44
2018-04-24T06:43:18.090Z,92.25
2018-04-24T06:44:18.163Z,91.77
2018-04-24T06:45:18.136Z,91.19
2018-04-24T06:46:18.164Z,90.86
2018-04-24T06:47:18.185Z,90.38
2018-04-24T06:48:18.203Z,89.51
2018-04-24T06:49:18.234Z,90.67
2018-04-24T06:50:18.257Z,89.71
2018-04-24T06:51:18.276Z,88.84
2018-04-24T06:52:18.299Z,87.74
2018-04-24T06:53:18.326Z,87.55
2018-04-24T06:54:18.444Z,87.64
2018-04-24T06:55:18.377Z,87.45
2018-04-24T06:56:18.408Z,87.74
2018-04-24T06:57:18.418Z,90.05
2018-04-24T06:58:18.437Z,89.90
2018-04-24T06:59:18.473Z,89.32
2018-04-24T07:00:18.482Z,90.43
2018-04-24T07:01:18.512Z,90.57
2018-04-24T07:02:18.544Z,89.32
2018-04-24T07:03:18.593Z,88.65
2018-04-24T07:04:18.579Z,88.41
2018-04-24T07:05:18.619Z,88.02
2018-04-24T07:06:18.645Z,87.84
2018-04-24T07:07:18.643Z,88.84
2018-04-24T07:08:18.670Z,89.13
2018-04-24T07:09:18.693Z,88.94
2018-04-24T07:10:18.730Z,89.13
2018-04-24T07:11:18.747Z,88.12
2018-04-24T07:12:18.770Z,88.02
2018-04-24T07:13:18.786Z,88.12
2018-04-24T07:14:18.813Z,88.56
2018-04-24T07:15:18.847Z,89.23
2018-04-24T07:16:18.865Z,89.23
2018-04-24T07:17:18.893Z,90.09
2018-04-24T07:18:18.908Z,90.04
2018-04-24T07:19:18.937Z,88.60
2018-04-24T07:20:18.953Z,87.55
2018-04-24T07:21:18.984Z,86.72
2018-04-24T07:22:19.062Z,86.63
2018-04-24T07:23:19.020Z,86.54
2018-04-24T07:24:19.046Z,86.63
2018-04-24T07:25:19.080Z,86.15
2018-04-24T07:26:19.090Z,86.82
2018-04-24T07:27:19.116Z,86.34
2018-04-24T07:28:19.138Z,86.92
2018-04-24T07:29:19.162Z,86.92
2018-04-24T07:30:19.196Z,86.34
2018-04-24T07:31:19.292Z,86.44
2018-04-24T07:32:19.249Z,87.40
2018-04-24T07:33:19.257Z,87.59
2018-04-24T07:34:19.286Z,87.11
2018-04-24T07:35:19.308Z,86.25
2018-04-24T07:36:19.330Z,86.72
2018-04-24T07:37:19.357Z,86.40
2018-04-24T07:38:19.376Z,85.48
2018-04-24T07:39:19.401Z,85.63
2018-04-24T07:40:19.423Z,85.28
2018-04-24T07:41:19.452Z,85.19
2018-04-24T07:42:19.475Z,85.34
2018-04-24T07:43:19.502Z,85.53
2018-04-24T07:44:19.520Z,85.34
2018-04-24T07:45:19.543Z,85.53
2018-04-24T07:46:19.569Z,86.01
2018-04-24T07:47:19.604Z,86.21
2018-04-24T07:48:19.617Z,85.82
2018-04-24T07:49:19.634Z,85.82
2018-04-24T07:50:19.668Z,85.19
2018-04-24T07:51:19.690Z,84.23
2018-04-24T07:52:19.705Z,84.04
2018-04-24T07:53:19.733Z,84.23
2018-04-24T07:54:19.760Z,83.94
2018-04-24T07:55:19.782Z,84.18
2018-04-24T07:56:19.810Z,83.08
2018-04-24T07:57:19.832Z,83.37
2018-04-24T07:58:19.871Z,83.23
2018-04-24T07:59:19.897Z,83.65
2018-04-24T08:00:19.902Z,83.56
2018-04-24T08:01:19.920Z,83.37
2018-04-24T08:02:19.944Z,82.79
2018-04-24T08:03:19.971Z,82.79
2018-04-24T08:04:19.989Z,82.16
2018-04-24T08:05:20.026Z,81.59
2018-04-24T08:06:20.049Z,80.91
2018-04-24T08:07:20.064Z,81.20
2018-04-24T08:08:20.171Z,81.78
2018-04-24T08:09:20.116Z,81.10
2018-04-24T08:10:20.146Z,81.49
2018-04-24T08:11:20.159Z,80.63
2018-04-24T08:12:20.195Z,80.91
2018-04-24T08:13:20.202Z,80.76
2018-04-24T08:14:20.229Z,80.47
2018-04-24T08:15:20.259Z,81.15
2018-04-24T08:16:20.289Z,82.07
2018-04-24T08:17:20.300Z,81.82
2018-04-24T08:18:20.331Z,79.90
2018-04-24T08:19:20.350Z,78.61
2018-04-24T08:20:20.372Z,79.24
2018-04-24T08:21:20.395Z,79.14
2018-04-24T08:22:20.421Z,79.24
2018-04-24T08:23:20.445Z,79.44
2018-04-24T08:24:20.473Z,78.57
2018-04-24T08:25:20.497Z,78.77
2018-04-24T08:26:20.518Z,78.61
2018-04-24T08:27:20.550Z,79.09
2018-04-24T08:28:20.570Z,79.28
2018-04-24T08:29:20.588Z,78.52
2018-04-24T08:30:20.616Z,78.52
2018-04-24T08:31:20.641Z,78.86
2018-04-24T08:32:20.662Z,79.67
2018-04-24T08:33:20.710Z,78.42
2018-04-24T08:34:20.725Z,78.55
2018-04-24T08:35:20.736Z,78.36
2018-04-24T08:36:20.768Z,78.75
2018-04-24T08:37:20.789Z,78.65
2018-04-24T08:38:20.806Z,78.08
2018-04-24T08:39:20.832Z,78.40
2018-04-24T08:40:20.860Z,77.21
2018-04-24T08:41:20.882Z,77.01
2018-04-24T08:42:20.918Z,77.21
2018-04-24T08:43:20.934Z,77.36
2018-04-24T08:44:20.955Z,76.79
2018-04-24T08:45:21.009Z,76.02
2018-04-24T08:46:21.004Z,75.63
2018-04-24T08:47:21.029Z,76.06
2018-04-24T08:48:21.054Z,75.63
2018-04-24T08:49:21.100Z,75.87
2018-04-24T08:50:21.101Z,76.06
2018-04-24T08:51:21.126Z,76.64
2018-04-24T08:52:21.149Z,75.96
2018-04-24T08:53:21.170Z,75.20
2018-04-24T08:54:21.207Z,74.71
2018-04-24T08:55:21.219Z,73.94
2018-04-24T08:56:21.254Z,73.18
2018-04-24T08:57:21.285Z,73.69
2018-04-24T08:58:21.300Z,72.18
2018-04-24T08:59:21.317Z,74.23
2018-04-24T09:00:21.342Z,73.62
2018-04-24T09:01:21.374Z,73.62
2018-04-24T09:02:21.396Z,73.62
2018-04-24T09:03:21.425Z,74.19
2018-04-24T09:04:21.448Z,73.75
2018-04-24T09:05:21.467Z,73.37
2018-04-24T09:06:21.490Z,72.99
2018-04-24T09:07:21.513Z,72.41
2018-04-24T09:08:21.540Z,72.89
2018-04-24T09:09:21.583Z,73.08
2018-04-24T09:10:21.617Z,73.18
2018-04-24T09:11:21.613Z,72.69
2018-04-24T09:12:21.638Z,72.02
2018-04-24T09:13:21.663Z,71.06
2018-04-24T09:14:21.682Z,70.58
2018-04-24T09:15:21.747Z,69.62
2018-04-24T09:16:21.731Z,70.10
2018-04-24T09:17:21.762Z,69.62
2018-04-24T09:18:21.791Z,68.89
2018-04-24T09:19:21.810Z,67.74
2018-04-24T09:20:21.832Z,66.58
2018-04-24T09:21:21.858Z,66.58
2018-04-24T09:22:21.926Z,67.64
2018-04-24T09:23:21.907Z,67.32
2018-04-24T09:24:21.931Z,67.99
2018-04-24T09:25:21.956Z,68.18
2018-04-24T09:26:21.978Z,67.54
2018-04-24T09:27:22.016Z,68.37
2018-04-24T09:28:22.025Z,69.05
2018-04-24T09:29:22.052Z,68.51
2018-04-24T09:30:22.077Z,68.70
2018-04-24T09:31:22.101Z,69.14
2018-04-24T09:32:22.124Z,68.51
2018-04-24T09:33:22.153Z,68.89
2018-04-24T09:34:22.176Z,68.60
2018-04-24T09:35:22.198Z,68.25
2018-04-24T09:36:22.224Z,67.68
2018-04-24T09:37:22.246Z,68.63
2018-04-24T09:38:22.271Z,67.77
2018-04-24T09:39:22.301Z,67.48
2018-04-24T09:40:22.323Z,67.07
2018-04-24T09:41:22.351Z,66.42
2018-04-24T09:42:22.378Z,65.56
2018-04-24T09:43:22.399Z,66.81
2018-04-24T09:44:22.423Z,65.91
2018-04-24T09:45:22.461Z,66.68
2018-04-24T09:46:22.467Z,66.87
2018-04-24T09:47:22.521Z,67.19
2018-04-24T09:48:22.523Z,66.91
2018-04-24T09:49:22.561Z,66.36
2018-04-24T09:50:22.573Z,65.97
2018-04-24T09:51:22.601Z,65.27
2018-04-24T09:52:22.620Z,65.27
2018-04-24T09:53:22.643Z,65.11
2018-04-24T09:54:22.667Z,64.12
2018-04-24T09:55:22.691Z,64.63
2018-04-24T09:56:22.725Z,63.86
2018-04-24T09:57:22.752Z,64.40
2018-04-24T09:58:22.766Z,64.63
2018-04-24T09:59:22.797Z,64.50
2018-04-24T10:00:22.824Z,64.12
2018-04-24T10:01:22.845Z,65.30
2018-04-24T10:02:22.871Z,64.92
2018-04-24T10:03:22.898Z,64.50
2018-04-24T10:04:22.923Z,63.70
2018-04-24T10:05:22.944Z,64.47
2018-04-24T10:06:22.977Z,64.47
2018-04-24T10:07:22.995Z,64.28
2018-04-24T10:08:23.025Z,64.60
2018-04-24T10:09:23.044Z,63.79
2018-04-24T10:10:23.067Z,64.18
2018-04-24T10:11:23.100Z,64.50
2018-04-24T10:12:23.123Z,64.22
2018-04-24T10:13:23.152Z,64.02
2018-04-24T10:14:23.184Z,64.73
2018-04-24T10:15:23.199Z,63.48
2018-04-24T10:16:23.227Z,64.15
2018-04-24T10:17:23.249Z,63.76
2018-04-24T10:18:23.270Z,64.12
2018-04-24T10:19:23.306Z,64.82
2018-04-24T10:20:23.327Z,64.05
2018-04-24T10:21:23.348Z,63.06
2018-04-24T10:22:23.377Z,63.67
2018-04-24T10:23:23.401Z,63.38
2018-04-24T10:24:23.491Z,62.71
2018-04-24T10:25:23.446Z,62.51
2018-04-24T10:26:23.481Z,62.99
2018-04-24T10:27:23.508Z,63.64
2018-04-24T10:28:23.528Z,63.86
2018-04-24T10:29:23.552Z,63.86
2018-04-24T10:30:23.583Z,63.15
2018-04-24T10:31:23.605Z,62.51
2018-04-24T10:32:23.628Z,62.96
2018-04-24T10:33:23.657Z,63.48
2018-04-24T10:34:23.682Z,62.80
2018-04-24T10:35:23.706Z,62.03
2018-04-24T10:36:23.731Z,61.55
2018-04-24T10:37:23.762Z,60.78
2018-04-24T10:38:23.783Z,61.55
2018-04-24T10:39:23.812Z,60.78
2018-04-24T10:40:23.835Z,60.30
2018-04-24T10:41:23.866Z,60.33
2018-04-24T10:42:23.879Z,59.94
2018-04-24T10:43:23.911Z,59.56
2018-04-24T10:44:23.936Z,59.17
2018-04-24T10:45:23.960Z,59.08
2018-04-24T10:46:23.992Z,59.56
2018-04-24T10:47:24.013Z,58.89
2018-04-24T10:48:24.050Z,58.60
2018-04-24T10:49:24.066Z,59.44
2018-04-24T10:50:24.090Z,59.47
2018-04-24T10:51:24.222Z,58.95
2018-04-24T10:52:24.141Z,59.92
2018-04-24T10:53:24.159Z,59.53
2018-04-24T10:54:24.222Z,59.47
2018-04-24T10:55:24.218Z,58.89
2018-04-24T10:56:24.247Z,58.98
2018-04-24T10:57:24.272Z,59.94
2018-04-24T10:58:24.293Z,59.82
2018-04-24T10:59:24.391Z,59.94
2018-04-24T11:00:24.344Z,59.63
2018-04-24T11:01:24.389Z,59.72
2018-04-24T11:02:24.398Z,59.15
2018-04-24T11:03:24.430Z,58.89
2018-04-24T11:04:24.477Z,58.92
2018-04-24T11:05:24.479Z,59.30
2018-04-24T11:06:24.506Z,58.98
2018-04-24T11:07:24.532Z,58.60
2018-04-24T11:08:24.564Z,58.50
2018-04-24T11:09:24.577Z,58.37
2018-04-24T11:10:24.609Z,58.95
2018-04-24T11:11:24.640Z,58.76
2018-04-24T11:12:24.652Z,58.67
2018-04-24T11:13:24.687Z,58.40
2018-04-24T11:14:24.706Z,57.86
2018-04-24T11:15:24.738Z,58.34
2018-04-24T11:16:24.763Z,58.34
2018-04-24T11:17:24.790Z,57.45
2018-04-24T11:18:24.815Z,57.54
2018-04-24T11:19:24.845Z,57.92
2018-04-24T11:20:24.865Z,57.67
2018-04-24T11:21:24.952Z,57.47
2018-04-24T11:22:24.920Z,57.57
2018-04-24T11:23:24.953Z,57.73
2018-04-24T11:24:24.971Z,57.64
2018-04-24T11:25:24.991Z,57.37
2018-04-24T11:26:25.147Z,57.18
2018-04-24T11:27:25.046Z,56.29
2018-04-24T11:28:25.076Z,56.67
2018-04-24T11:29:25.102Z,56.80
2018-04-24T11:30:25.143Z,56.41
2018-04-24T11:31:25.152Z,56.51
2018-04-24T11:32:25.229Z,57.50
2018-04-24T11:33:25.206Z,56.35
2018-04-24T11:34:25.260Z,56.25
2018-04-24T11:35:25.274Z,56.57
2018-04-24T11:36:25.283Z,56.57
2018-04-24T11:37:25.316Z,57.05
2018-04-24T11:38:25.337Z,56.47
2018-04-24T11:39:25.364Z,56.73
2018-04-24T11:40:25.400Z,56.63
2018-04-24T11:41:25.488Z,56.37
2018-04-24T11:42:25.439Z,55.70
2018-04-24T11:43:25.471Z,55.51
2018-04-24T11:44:25.494Z,55.51
2018-04-24T11:45:25.529Z,55.12
2018-04-24T11:46:25.574Z,55.41
2018-04-24T11:47:25.572Z,55.12
2018-04-24T11:48:25.612Z,56.09
2018-04-24T11:49:25.630Z,55.51
2018-04-24T11:50:25.654Z,54.44
2018-04-24T11:51:25.684Z,54.47
2018-04-24T11:52:25.706Z,54.38
2018-04-24T11:53:25.732Z,54.28
2018-04-24T11:54:25.761Z,53.22
2018-04-24T11:55:25.795Z,54.38
2018-04-24T11:56:25.822Z,54.38
2018-04-24T11:57:25.840Z,54.64
2018-04-24T11:58:25.865Z,53.89
2018-04-24T11:59:25.894Z,53.31
2018-04-24T12:00:25.923Z,53.22
2018-04-24T12:01:25.948Z,53.41
2018-04-24T12:02:25.978Z,53.53
2018-04-24T12:03:26.017Z,53.09
2018-04-24T12:04:26.033Z,53.29
2018-04-24T12:05:26.061Z,53.41
2018-04-24T12:06:26.090Z,52.83
2018-04-24T12:07:26.115Z,53.13
2018-04-24T12:08:26.139Z,52.71
2018-04-24T12:09:26.172Z,53.51
2018-04-24T12:10:26.194Z,53.13
2018-04-24T12:11:26.222Z,52.73
2018-04-24T12:12:26.247Z,53.03
2018-04-24T12:13:26.279Z,52.73
2018-04-24T12:14:26.310Z,52.73
2018-04-24T12:15:26.334Z,52.86
2018-04-24T12:16:26.357Z,52.93
2018-04-24T12:17:26.380Z,52.93
2018-04-24T12:18:26.407Z,52.35
2018-04-24T12:19:26.468Z,52.06
2018-04-24T12:20:26.473Z,52.37
2018-04-24T12:21:26.493Z,52.57
2018-04-24T12:22:26.519Z,52.31
2018-04-24T12:23:26.551Z,52.37
2018-04-24T12:24:26.659Z,52.19
2018-04-24T12:25:26.606Z,52.25
2018-04-24T12:26:26.632Z,52.19
2018-04-24T12:27:26.657Z,51.82
2018-04-24T12:28:26.693Z,51.07
2018-04-24T12:29:26.716Z,50.38
2018-04-24T12:30:26.830Z,51.12
2018-04-24T12:31:26.775Z,51.25
2018-04-24T12:32:26.798Z,51.15
2018-04-24T12:33:26.819Z,50.74
2018-04-24T12:34:26.854Z,51.05
2018-04-24T12:35:26.879Z,50.18
2018-04-24T12:36:26.905Z,50.69
2018-04-24T12:37:26.936Z,49.90
2018-04-24T12:38:26.960Z,49.63
2018-04-24T12:39:26.994Z,49.73
2018-04-24T12:40:27.016Z,49.44
2018-04-24T12:41:27.042Z,48.69
2018-04-24T12:42:27.073Z,48.21
2018-04-24T12:43:27.110Z,48.39
2018-04-24T12:44:27.130Z,48.79
2018-04-24T12:45:27.158Z,49.15
2018-04-24T12:46:27.187Z,48.79
2018-04-24T12:47:27.210Z,48.39
2018-04-24T12:48:27.251Z,48.01
2018-04-24T12:49:27.275Z,48.49
2018-04-24T12:50:27.306Z,48.39
2018-04-24T12:51:27.331Z,47.84
2018-04-24T12:52:27.355Z,46.51